createdAt,value
2022-12-23T16:28:52.284Z,12.00
2022-12-23T16:30:36.055Z,12.10
2022-12-23T16:32:18.786Z,12.20
2022-12-23T16:33:52.048Z,12.28
2022-12-23T16:35:39.559Z,12.17
2022-12-23T16:37:11.175Z,12.07
2022-12-23T16:38:43.015Z,12.02
2022-12-23T16:40:14.685Z,12.06
2022-12-23T16:41:46.274Z,12.10
2022-12-23T16:43:18.997Z,12.22
2022-12-23T16:44:51.422Z,12.24
2022-12-23T16:46:23.735Z,12.32
2022-12-23T16:47:57.537Z,12.32
2022-12-23T16:49:33.769Z,12.40
2022-12-23T16:51:11.573Z,12.23
2022-12-23T16:52:43.688Z,12.32
2022-12-23T16:54:18.766Z,12.40
2022-12-23T16:55:56.641Z,12.39
2022-12-23T16:57:32.199Z,12.42
2022-12-23T16:59:05.118Z,12.38
2022-12-23T17:00:39.582Z,12.37
2022-12-23T17:02:19.379Z,12.40
2022-12-23T17:03:51.944Z,12.47
2022-12-23T17:05:24.351Z,12.40
2022-12-23T17:06:55.952Z,12.36
2022-12-23T17:08:27.532Z,12.33
2022-12-23T17:09:59.184Z,12.36
2022-12-23T17:11:42.903Z,12.43
2022-12-23T17:13:18.269Z,12.40
2022-12-23T17:14:49.877Z,12.37
2022-12-23T17:16:24.355Z,12.33
2022-12-23T17:17:56.103Z,12.33
2022-12-23T17:19:29.232Z,12.40
2022-12-23T17:21:01.373Z,12.37
2022-12-23T17:22:35.663Z,12.41
2022-12-23T17:24:12.637Z,12.42
2022-12-23T17:25:44.425Z,12.36
2022-12-23T17:27:18.094Z,12.38
2022-12-23T17:28:49.809Z,12.48
2022-12-23T17:30:24.048Z,12.34
2022-12-23T17:31:56.264Z,12.29
2022-12-23T17:33:31.129Z,12.30
2022-12-23T17:35:02.746Z,12.40
2022-12-23T17:36:34.373Z,12.43
2022-12-23T17:38:12.820Z,12.36
2022-12-23T17:39:45.043Z,12.35
2022-12-23T17:41:30.893Z,12.29
2022-12-23T17:43:02.599Z,12.37
2022-12-23T17:44:34.248Z,12.39
2022-12-23T17:46:06.041Z,12.30
2022-12-23T17:47:37.733Z,12.36
2022-12-23T17:49:09.460Z,12.34
2022-12-23T17:50:42.665Z,12.34
2022-12-23T17:52:22.502Z,12.37
2022-12-23T17:53:57.746Z,12.31
2022-12-23T17:55:29.891Z,12.32
2022-12-23T17:57:01.613Z,12.43
2022-12-23T17:58:33.213Z,12.46
2022-12-23T18:00:05.246Z,12.58
2022-12-23T18:01:43.463Z,12.55
2022-12-23T18:03:23.402Z,12.46
2022-12-23T18:04:55.071Z,12.51
2022-12-23T18:06:28.826Z,12.45
2022-12-23T18:08:02.145Z,12.48
2022-12-23T18:09:33.778Z,12.35
2022-12-23T18:11:06.098Z,12.26
2022-12-23T18:12:39.649Z,12.44
2022-12-23T18:14:31.871Z,12.46
2022-12-23T18:16:03.603Z,12.47
2022-12-23T18:17:35.224Z,12.49
2022-12-23T18:19:17.907Z,12.71
2022-12-23T18:20:52.525Z,12.64
2022-12-23T18:22:26.699Z,12.51
2022-12-23T18:24:00.027Z,12.62
2022-12-23T18:25:31.868Z,12.61
2022-12-23T18:27:14.058Z,12.57
2022-12-23T18:28:45.622Z,12.67
2022-12-23T18:30:17.927Z,12.79
2022-12-23T18:31:52.164Z,12.71
2022-12-23T18:33:28.478Z,12.82
2022-12-23T18:35:00.210Z,12.81
2022-12-23T18:36:33.908Z,12.78
2022-12-23T18:38:05.902Z,12.60
2022-12-23T18:39:37.430Z,12.72
2022-12-23T18:41:12.166Z,12.63
2022-12-23T18:42:43.868Z,12.58
2022-12-23T18:44:21.179Z,12.35
2022-12-23T18:45:54.137Z,12.38
2022-12-23T18:47:25.952Z,12.41
2022-12-23T18:48:57.562Z,12.34
2022-12-23T18:50:30.157Z,12.30
2022-12-23T18:52:03.661Z,12.15
2022-12-23T18:53:35.210Z,12.23
2022-12-23T18:55:07.200Z,12.13
2022-12-23T18:56:38.795Z,12.12
2022-12-23T18:58:11.518Z,12.03
2022-12-23T18:59:43.106Z,12.15
2022-12-23T19:01:16.615Z,12.11
2022-12-23T19:02:49.618Z,12.09
2022-12-23T19:04:21.318Z,12.00
2022-12-23T19:05:54.680Z,11.94
2022-12-23T19:07:26.289Z,11.94
2022-12-23T19:08:57.954Z,11.90
2022-12-23T19:10:33.344Z,11.91
2022-12-23T19:12:05.692Z,11.88
2022-12-23T19:13:37.391Z,11.81
2022-12-23T19:15:09.406Z,11.82
2022-12-23T19:16:46.093Z,11.78
2022-12-23T19:18:22.428Z,11.66
2022-12-23T19:19:54.166Z,11.66
2022-12-23T19:21:25.745Z,11.59
2022-12-23T19:22:57.401Z,11.53
2022-12-23T19:24:29.033Z,11.41
2022-12-23T19:26:00.721Z,11.43
2022-12-23T19:27:32.672Z,11.47
2022-12-23T19:29:04.425Z,11.40
2022-12-23T19:30:36.228Z,11.46
2022-12-23T19:32:07.836Z,11.41
2022-12-23T19:33:40.947Z,11.34
2022-12-23T19:35:14.196Z,11.21
2022-12-23T19:36:46.001Z,11.26
2022-12-23T19:38:17.639Z,11.37
2022-12-23T19:39:50.015Z,11.37
2022-12-23T19:41:21.608Z,11.37
2022-12-23T19:42:53.194Z,11.41
2022-12-23T19:44:24.810Z,11.33
2022-12-23T19:46:01.862Z,11.26
2022-12-23T19:47:33.552Z,11.25
2022-12-23T19:49:05.244Z,11.24
2022-12-23T19:50:36.817Z,11.19
2022-12-23T19:52:08.454Z,11.11
2022-12-23T19:53:41.664Z,11.17
2022-12-23T19:55:13.426Z,11.08
2022-12-23T19:56:45.515Z,11.17
2022-12-23T19:58:17.098Z,11.20
2022-12-23T19:59:48.698Z,11.23
2022-12-23T20:01:23.957Z,11.17
2022-12-23T20:02:58.952Z,11.04
2022-12-23T20:04:32.000Z,10.92
2022-12-23T20:06:05.471Z,10.90
2022-12-23T20:07:37.720Z,10.93
2022-12-23T20:09:12.340Z,10.93
2022-12-23T20:10:44.237Z,10.88
2022-12-23T20:12:16.040Z,10.88
2022-12-23T20:13:51.955Z,10.93
2022-12-23T20:15:23.529Z,10.96
2022-12-23T20:16:55.249Z,10.93
2022-12-23T20:18:27.342Z,10.86
2022-12-23T20:19:58.939Z,10.86
2022-12-23T20:21:31.220Z,10.75
2022-12-23T20:23:02.783Z,10.69
2022-12-23T20:24:35.892Z,10.56
2022-12-23T20:26:07.605Z,10.64
2022-12-23T20:27:39.621Z,10.53
2022-12-23T20:29:11.712Z,10.48
2022-12-23T20:30:43.559Z,10.43
2022-12-23T20:32:15.299Z,10.39
2022-12-23T20:33:47.951Z,10.34
2022-12-23T20:35:19.711Z,10.35
2022-12-23T20:36:51.333Z,10.33
2022-12-23T20:38:23.067Z,10.23
2022-12-23T20:39:54.739Z,10.20
2022-12-23T20:41:28.202Z,10.28
2022-12-23T20:42:59.792Z,10.25
2022-12-23T20:44:35.235Z,10.27
2022-12-23T20:46:10.730Z,10.35
2022-12-23T20:47:42.436Z,10.28
2022-12-23T20:49:14.024Z,10.19
2022-12-23T20:50:45.600Z,10.21
2022-12-23T20:52:17.617Z,10.09
2022-12-23T20:53:49.697Z,10.01
2022-12-23T20:55:21.266Z,9.92
2022-12-23T20:56:52.836Z,9.86
2022-12-23T20:58:42.698Z,9.90
2022-12-23T21:00:14.961Z,9.86
2022-12-23T21:01:46.650Z,9.85
2022-12-23T21:03:18.317Z,10.05
2022-12-23T21:04:50.001Z,10.02
2022-12-23T21:06:22.644Z,9.91
2022-12-23T21:07:54.289Z,9.95
2022-12-23T21:09:25.845Z,9.86
2022-12-23T21:10:58.511Z,9.84
2022-12-23T21:12:30.362Z,9.76
2022-12-23T21:14:06.395Z,9.73
2022-12-23T21:15:38.785Z,9.72
2022-12-23T21:17:10.639Z,9.69
2022-12-23T21:18:44.746Z,9.67
2022-12-23T21:20:16.508Z,9.64
2022-12-23T21:21:48.967Z,9.62
2022-12-23T21:23:20.697Z,9.66
2022-12-23T21:24:52.304Z,9.64
2022-12-23T21:26:26.677Z,9.64
2022-12-23T21:27:58.391Z,9.63
2022-12-23T21:29:30.050Z,9.79
2022-12-23T21:31:01.824Z,9.77
2022-12-23T21:32:33.852Z,9.74
2022-12-23T21:34:06.622Z,9.71
2022-12-23T21:35:38.396Z,9.63
2022-12-23T21:37:10.145Z,9.58
2022-12-23T21:38:43.914Z,9.52
2022-12-23T21:40:15.860Z,9.44
2022-12-23T21:41:49.180Z,9.60
2022-12-23T21:43:20.842Z,9.67
2022-12-23T21:44:52.474Z,9.56
2022-12-23T21:46:25.011Z,9.43
2022-12-23T21:47:56.755Z,9.51
2022-12-23T21:49:28.376Z,9.55
2022-12-23T21:51:14.016Z,9.76
2022-12-23T21:52:46.670Z,9.83
2022-12-23T21:54:18.445Z,9.90
2022-12-23T21:55:50.268Z,10.17
2022-12-23T21:57:21.908Z,10.17
2022-12-23T21:59:01.999Z,10.16
2022-12-23T22:00:34.223Z,10.32
2022-12-23T22:02:06.063Z,10.25
2022-12-23T22:03:38.754Z,10.28
2022-12-23T22:05:11.012Z,10.18
2022-12-23T22:06:44.443Z,10.25
2022-12-23T22:08:17.051Z,10.31
2022-12-23T22:09:48.762Z,10.36
2022-12-23T22:11:22.987Z,10.34
2022-12-23T22:12:54.722Z,10.08
2022-12-23T22:14:26.454Z,9.93
2022-12-23T22:15:58.316Z,9.75
2022-12-23T22:17:29.929Z,9.64
2022-12-23T22:19:02.428Z,9.53
2022-12-23T22:20:39.812Z,9.55
2022-12-23T22:22:15.936Z,9.57
2022-12-23T22:23:48.512Z,9.66
2022-12-23T22:25:20.237Z,9.68
2022-12-23T22:26:51.857Z,9.73
2022-12-23T22:28:23.405Z,9.70
2022-12-23T22:29:55.836Z,10.05
2022-12-23T22:31:30.797Z,10.09
2022-12-23T22:33:02.524Z,10.15
2022-12-23T22:34:34.224Z,10.21
2022-12-23T22:36:06.689Z,10.17
2022-12-23T22:37:38.365Z,10.26
2022-12-23T22:39:15.983Z,10.31
2022-12-23T22:40:52.774Z,10.40
2022-12-23T22:42:24.416Z,10.39
2022-12-23T22:43:57.020Z,10.37
2022-12-23T22:45:29.051Z,10.46
2022-12-23T22:47:01.021Z,10.42
2022-12-23T22:48:33.319Z,10.46
2022-12-23T22:50:06.004Z,10.33
2022-12-23T22:51:37.641Z,10.43
2022-12-23T22:53:11.423Z,10.33
2022-12-23T22:54:43.109Z,10.42
2022-12-23T22:56:16.881Z,10.30
2022-12-23T22:57:48.618Z,10.16
2022-12-23T22:59:22.667Z,10.15
2022-12-23T23:00:54.458Z,10.16
2022-12-23T23:02:26.506Z,10.23
2022-12-23T23:04:01.090Z,10.04
2022-12-23T23:05:32.961Z,9.86
2022-12-23T23:07:04.652Z,9.80
2022-12-23T23:08:36.292Z,9.66
2022-12-23T23:10:08.700Z,9.54
2022-12-23T23:11:40.758Z,9.55
2022-12-23T23:13:12.365Z,9.49
2022-12-23T23:14:52.976Z,9.39
2022-12-23T23:16:25.180Z,9.49
2022-12-23T23:17:56.877Z,9.48
2022-12-23T23:19:28.579Z,9.43
2022-12-23T23:21:00.419Z,9.32
2022-12-23T23:22:32.016Z,9.34
2022-12-23T23:24:04.864Z,9.34
2022-12-23T23:25:36.527Z,9.39
2022-12-23T23:27:08.532Z,9.57
2022-12-23T23:28:41.112Z,9.82
2022-12-23T23:30:12.870Z,9.72
2022-12-23T23:31:45.091Z,9.58
2022-12-23T23:33:17.012Z,9.48
2022-12-23T23:34:48.620Z,9.34
2022-12-23T23:36:20.425Z,9.42
2022-12-23T23:37:52.215Z,9.37
2022-12-23T23:39:23.867Z,9.39
2022-12-23T23:40:57.183Z,9.29
2022-12-23T23:42:29.015Z,9.43
2022-12-23T23:44:00.838Z,9.61
2022-12-23T23:45:32.677Z,9.60
2022-12-23T23:47:04.404Z,9.60
2022-12-23T23:48:36.104Z,9.56
2022-12-23T23:50:08.392Z,9.61
2022-12-23T23:51:41.808Z,9.59
2022-12-23T23:53:14.427Z,9.73
2022-12-23T23:54:46.054Z,9.66
2022-12-23T23:56:23.753Z,9.86
2022-12-23T23:57:56.779Z,10.06
2022-12-23T23:59:28.927Z,9.90
